CheckWX is a tool to help pilots better visualize weather data.  It is not intended as a substitute for an official pre-flight weather briefing.

06:42:42 UTC

KUNU METAR
Dodge County Airport
Juneau, Wisconsin, USA
Current

2 hours ago

KUNU 220455Z AUTO 20011KT 10SM CLR M04/M10 A3021 RMK AO2 T10451097
Observed
Feb-22 @ 04:55 UTC
Wind
  • 200° at 11 KTS
Visibility
10 SM
Flight Rules
VFR
Cloud Levels
  • Clear skies
Temperature
-5°C / 23°F
Dewpoint
-10°C / 14°F
Humidity
68%
Altimeter
30.21" Hg
Pressure
1023.02 hPa
Previous

3 hours ago

KUNU 220355Z AUTO 20009KT 10SM CLR M05/M10 A3022 RMK AO2 T10481097
Observed
Feb-22 @ 03:55 UTC
Wind
  • 200° at 9 KTS
Visibility
10 SM
Flight Rules
VFR
Cloud Levels
  • Clear skies
Temperature
-5°C / 23°F
Dewpoint
-10°C / 14°F
Humidity
68%
Altimeter
30.22" Hg
Pressure
1023.42 hPa
Previous

4 hours ago

KUNU 220235Z AUTO 20008KT 10SM CLR M05/M10 A3023 RMK AO2 T10471098
Observed
Feb-22 @ 02:35 UTC
Wind
  • 200° at 8 KTS
Visibility
10 SM
Flight Rules
VFR
Cloud Levels
  • Clear skies
Temperature
-5°C / 23°F
Dewpoint
-10°C / 14°F
Humidity
68%
Altimeter
30.23" Hg
Pressure
1023.72 hPa